< < Back
Terminal Aerodrome Forecast


Current Version              Previous Versions:   1  2  3  4  5  6  7  8  9  

Terminal Aerodrome Forecast

131
FTUS42 KJAX 060538
TAFJAX
TAF
KJAX 060538Z 0606/0706 33008KT 5SM BR SCT008 OVC012
     FM061100 01011KT 5SM BR OVC007
     FM061400 02010KT 5SM -SHRA BR OVC007
     FM062200 02011KT 6SM BR OVC015
     FM070200 01005KT P6SM SCT020 BKN250=

Latest METAR

517
SAUS80 KWBC 060800
MTRJAX
METAR KJAX 060756Z 34010KT 10SM FEW006 OVC017 13/13 A3019 RMK AO2 SLP222
T01280128


USA.gov is the U.S. government's official web portal to all federal, state and local government web resources and services.